TAF KCHS
KCHS 270524Z 2706/2806 36004KT P6SM SKC FM271400 03006KT P6SM SKC FM280000 19003KT P6SM FEW250=
METAR KCHS
WC KCHS
WS KCHS
WV KCHS